createdAt,value
2023-07-26T00:00:22.787Z,63.65
2023-07-26T00:03:10.479Z,63.08
2023-07-26T00:05:58.195Z,63.47
2023-07-26T00:08:45.822Z,61.74
2023-07-26T00:11:33.461Z,61.31
2023-07-26T00:14:21.101Z,59.00
2023-07-26T00:17:08.718Z,60.14
2023-07-26T00:19:56.337Z,59.54
2023-07-26T00:22:43.999Z,59.98
2023-07-26T00:25:31.632Z,58.48
2023-07-26T00:28:19.278Z,57.35
2023-07-26T00:31:06.949Z,57.14
2023-07-26T00:33:54.623Z,57.26
2023-07-26T00:36:42.275Z,58.32
2023-07-26T00:39:29.908Z,58.47
2023-07-26T00:42:17.533Z,57.94
2023-07-26T00:45:05.163Z,56.29
2023-07-26T00:47:52.776Z,55.26
2023-07-26T00:50:40.435Z,55.06
2023-07-26T00:53:28.062Z,55.36
2023-07-26T00:56:15.684Z,56.89
2023-07-26T00:59:06.805Z,56.89
2023-07-26T01:01:54.988Z,57.30
2023-07-26T01:04:42.658Z,57.68
2023-07-26T01:07:30.299Z,56.85
2023-07-26T01:10:17.910Z,56.14
2023-07-26T01:13:05.590Z,55.80
2023-07-26T01:15:53.245Z,56.59
2023-07-26T01:18:40.886Z,56.66
2023-07-26T01:21:30.293Z,56.37
2023-07-26T01:24:18.243Z,56.76
2023-07-26T01:27:05.936Z,55.40
2023-07-26T01:29:53.587Z,56.18
2023-07-26T01:32:41.231Z,56.46
2023-07-26T01:35:28.944Z,57.58
2023-07-26T01:38:16.628Z,57.92
2023-07-26T01:41:04.275Z,58.46
2023-07-26T01:43:51.901Z,59.36
2023-07-26T01:46:39.613Z,60.04
2023-07-26T01:49:27.346Z,59.77
2023-07-26T01:52:15.016Z,59.99
2023-07-26T01:55:02.651Z,58.41
2023-07-26T01:57:52.275Z,58.53
2023-07-26T02:00:39.887Z,57.14
2023-07-26T02:03:29.514Z,54.95
2023-07-26T02:06:17.184Z,55.10
2023-07-26T02:09:04.829Z,55.61
2023-07-26T02:11:52.493Z,55.58
2023-07-26T02:14:40.173Z,54.96
2023-07-26T02:17:27.840Z,56.70
2023-07-26T02:20:17.525Z,57.84
2023-07-26T02:23:05.153Z,58.52
2023-07-26T02:25:52.820Z,58.39
2023-07-26T02:28:40.445Z,59.88
2023-07-26T02:31:28.144Z,59.21
2023-07-26T02:34:15.781Z,58.23
2023-07-26T02:37:03.434Z,58.68
2023-07-26T02:39:51.099Z,59.34
2023-07-26T02:42:38.746Z,59.01
2023-07-26T02:45:26.567Z,57.62
2023-07-26T02:48:14.211Z,56.22
2023-07-26T02:51:01.839Z,56.51
2023-07-26T02:53:49.465Z,56.45
2023-07-26T02:56:37.086Z,56.51
2023-07-26T02:59:24.719Z,56.53
2023-07-26T03:02:12.351Z,56.36
2023-07-26T03:05:00.039Z,54.81
2023-07-26T03:07:47.665Z,54.79
2023-07-26T03:10:35.330Z,55.56
2023-07-26T03:13:22.962Z,55.23
2023-07-26T03:16:10.619Z,55.73
2023-07-26T03:18:58.259Z,55.59
2023-07-26T03:21:47.879Z,54.59
2023-07-26T03:24:35.549Z,53.95
2023-07-26T03:27:24.678Z,54.91
2023-07-26T03:30:12.586Z,54.07
2023-07-26T03:33:00.296Z,54.20
2023-07-26T03:35:47.997Z,54.38
2023-07-26T03:38:35.662Z,53.82
2023-07-26T03:41:23.302Z,52.89
2023-07-26T03:44:10.958Z,52.42
2023-07-26T03:46:58.591Z,52.94
2023-07-26T03:49:46.212Z,52.05
2023-07-26T03:52:33.921Z,52.40
2023-07-26T03:55:21.551Z,52.11
2023-07-26T03:58:09.206Z,52.62
2023-07-26T04:00:56.877Z,54.42
2023-07-26T04:03:46.637Z,53.90
2023-07-26T04:06:34.571Z,54.17
2023-07-26T04:09:22.581Z,53.79
2023-07-26T04:12:10.211Z,53.51
2023-07-26T04:15:17.826Z,53.18
2023-07-26T04:18:05.493Z,52.74
2023-07-26T04:20:53.212Z,52.29
2023-07-26T04:23:40.838Z,53.57
2023-07-26T04:26:28.499Z,53.83
2023-07-26T04:29:16.147Z,53.68
2023-07-26T04:32:03.762Z,53.15
2023-07-26T04:34:51.447Z,52.80
2023-07-26T04:37:39.066Z,52.67
2023-07-26T04:40:26.711Z,54.29
2023-07-26T04:43:14.333Z,53.90
2023-07-26T04:46:01.989Z,54.15
2023-07-26T04:48:49.639Z,53.98
2023-07-26T04:51:37.255Z,54.54
2023-07-26T04:54:24.910Z,55.81
2023-07-26T04:57:12.538Z,56.27
2023-07-26T05:00:00.178Z,55.82
2023-07-26T05:02:47.921Z,57.71
2023-07-26T05:05:35.593Z,56.87
2023-07-26T05:08:23.233Z,57.73
2023-07-26T05:11:10.886Z,58.64
2023-07-26T05:13:58.533Z,59.67
2023-07-26T05:16:46.204Z,61.55
2023-07-26T05:19:33.902Z,60.84
2023-07-26T05:22:21.560Z,61.60
2023-07-26T05:25:09.175Z,62.30
2023-07-26T05:27:56.851Z,63.37
2023-07-26T05:30:44.583Z,64.74
2023-07-26T05:33:32.237Z,66.89
2023-07-26T05:36:20.040Z,66.28
2023-07-26T05:39:07.768Z,67.63
2023-07-26T05:41:55.412Z,67.12
2023-07-26T05:44:43.073Z,67.91
2023-07-26T05:47:30.773Z,66.37
2023-07-26T05:50:21.072Z,68.28
2023-07-26T05:53:09.781Z,68.82
2023-07-26T05:55:57.428Z,68.97
2023-07-26T05:58:47.102Z,70.21
2023-07-26T06:01:35.421Z,70.53
2023-07-26T06:04:23.333Z,70.66
2023-07-26T06:07:10.984Z,70.38
2023-07-26T06:09:58.609Z,70.50
2023-07-26T06:12:46.257Z,71.49
2023-07-26T06:15:33.889Z,71.46
2023-07-26T06:18:21.590Z,70.72
2023-07-26T06:21:09.229Z,69.40
2023-07-26T06:23:56.871Z,70.34
2023-07-26T06:26:44.547Z,71.66
2023-07-26T06:29:32.184Z,72.20
2023-07-26T06:32:19.837Z,71.45
2023-07-26T06:35:07.459Z,73.00
2023-07-26T06:37:55.107Z,73.46
2023-07-26T06:40:42.743Z,72.36
2023-07-26T06:43:30.391Z,73.08
2023-07-26T06:46:18.070Z,72.10
2023-07-26T06:49:05.783Z,73.71
2023-07-26T06:51:53.419Z,73.50
2023-07-26T06:54:41.074Z,73.56
2023-07-26T06:57:28.708Z,71.53
2023-07-26T07:00:16.360Z,71.40
2023-07-26T07:03:04.043Z,71.45
2023-07-26T07:05:51.719Z,72.66
2023-07-26T07:08:39.389Z,71.24
2023-07-26T07:11:27.043Z,71.09
2023-07-26T07:14:14.642Z,72.24
2023-07-26T07:17:02.272Z,68.41
2023-07-26T07:19:49.896Z,65.88
2023-07-26T07:22:37.557Z,68.74
2023-07-26T07:25:25.228Z,68.79
2023-07-26T07:28:12.878Z,65.87
2023-07-26T07:31:02.517Z,62.75
2023-07-26T07:33:50.150Z,66.45
2023-07-26T07:36:37.778Z,67.11
2023-07-26T07:39:25.552Z,65.05
2023-07-26T07:42:13.321Z,62.20
2023-07-26T07:45:00.949Z,64.57
2023-07-26T07:47:48.660Z,59.17
2023-07-26T07:50:36.343Z,62.29
2023-07-26T07:53:23.985Z,64.14
2023-07-26T07:56:11.606Z,65.84
2023-07-26T07:58:59.259Z,62.17
2023-07-26T08:01:46.895Z,64.73
2023-07-26T08:04:34.663Z,65.73
2023-07-26T08:07:22.287Z,63.41
2023-07-26T08:10:09.929Z,64.96
2023-07-26T08:12:57.590Z,66.11
2023-07-26T08:15:45.363Z,62.00
2023-07-26T08:18:33.104Z,62.28
2023-07-26T08:21:20.745Z,61.44
2023-07-26T08:24:08.381Z,63.30
2023-07-26T08:26:56.161Z,63.70
2023-07-26T08:29:45.801Z,63.72
2023-07-26T08:32:33.435Z,63.89
2023-07-26T08:35:21.093Z,65.52
2023-07-26T08:38:08.722Z,65.12
2023-07-26T08:40:56.372Z,65.54
2023-07-26T08:43:44.025Z,66.03
2023-07-26T08:46:31.683Z,66.16
2023-07-26T08:49:19.404Z,64.40
2023-07-26T08:52:07.034Z,69.34
2023-07-26T08:54:54.701Z,66.37
2023-07-26T08:57:42.638Z,65.28
2023-07-26T09:00:30.372Z,67.20
2023-07-26T09:03:18.093Z,66.37
2023-07-26T09:06:05.856Z,64.09
2023-07-26T09:08:53.505Z,59.98
2023-07-26T09:11:41.167Z,61.84
2023-07-26T09:14:28.844Z,57.79
2023-07-26T09:17:16.499Z,62.59
2023-07-26T09:20:04.121Z,61.68
2023-07-26T09:22:51.783Z,60.65
2023-07-26T09:25:39.399Z,63.45
2023-07-26T09:28:27.044Z,64.42
2023-07-26T09:31:14.753Z,62.74
2023-07-26T09:34:02.393Z,61.10
2023-07-26T09:36:50.050Z,62.17
2023-07-26T09:39:37.721Z,61.14
2023-07-26T09:42:26.693Z,61.72
2023-07-26T09:48:05.421Z,60.37
2023-07-26T09:50:53.284Z,57.64
2023-07-26T09:53:41.006Z,58.15
2023-07-26T09:56:28.633Z,58.59
2023-07-26T09:59:16.268Z,58.06
2023-07-26T10:02:04.168Z,56.93
2023-07-26T10:04:52.114Z,56.91
2023-07-26T10:07:39.756Z,55.01
2023-07-26T10:10:27.414Z,50.82
2023-07-26T10:13:15.039Z,55.20
2023-07-26T10:16:02.687Z,57.05
2023-07-26T10:18:50.380Z,55.00
2023-07-26T10:21:38.033Z,56.43
2023-07-26T10:24:25.758Z,54.36
2023-07-26T10:27:13.434Z,57.17
2023-07-26T10:30:01.096Z,54.64
2023-07-26T10:32:48.831Z,57.30
2023-07-26T10:35:36.528Z,57.38
2023-07-26T10:38:24.161Z,59.28
2023-07-26T10:41:11.793Z,54.89
2023-07-26T10:44:01.438Z,55.26
2023-07-26T10:46:49.186Z,54.00
2023-07-26T10:49:36.890Z,55.68
2023-07-26T10:52:24.503Z,57.70
2023-07-26T10:55:12.138Z,57.42
2023-07-26T10:57:59.785Z,56.49
2023-07-26T11:00:47.417Z,57.98
2023-07-26T11:03:35.072Z,56.29
2023-07-26T11:06:22.705Z,54.31
2023-07-26T11:09:10.322Z,55.65
2023-07-26T11:11:57.985Z,54.35
2023-07-26T11:14:54.367Z,55.29
2023-07-26T11:17:53.253Z,55.64
2023-07-26T11:20:40.953Z,53.74
2023-07-26T11:23:28.872Z,53.68
2023-07-26T11:26:16.611Z,48.50
2023-07-26T11:29:04.210Z,50.21
2023-07-26T11:31:51.952Z,49.14
2023-07-26T11:34:39.746Z,50.91
2023-07-26T11:37:27.409Z,50.35
2023-07-26T11:40:15.054Z,50.72
2023-07-26T11:43:02.720Z,50.10
2023-07-26T11:45:50.471Z,51.81
2023-07-26T11:48:38.222Z,50.56
2023-07-26T11:51:25.862Z,51.04
2023-07-26T11:54:13.505Z,52.33
2023-07-26T11:57:01.185Z,53.13
2023-07-26T11:59:48.821Z,50.13
2023-07-26T12:02:36.546Z,49.04
2023-07-26T12:05:24.176Z,47.06
2023-07-26T12:08:11.880Z,48.58
2023-07-26T12:11:00.860Z,46.68
2023-07-26T12:13:48.493Z,46.45
2023-07-26T12:16:36.403Z,46.97
2023-07-26T12:19:24.312Z,45.49
2023-07-26T12:22:11.975Z,48.33
2023-07-26T12:24:59.675Z,48.00
2023-07-26T12:27:47.361Z,43.57
2023-07-26T12:30:35.046Z,44.61
2023-07-26T12:33:22.671Z,46.96
2023-07-26T12:36:10.313Z,48.77
2023-07-26T12:38:57.942Z,47.45
2023-07-26T12:41:46.570Z,47.62
2023-07-26T12:44:34.698Z,43.88
2023-07-26T12:50:12.881Z,43.04
2023-07-26T12:53:00.532Z,41.62
2023-07-26T12:55:48.204Z,43.58
2023-07-26T12:58:35.872Z,42.99
2023-07-26T13:01:23.587Z,43.62
2023-07-26T13:04:11.463Z,44.85
2023-07-26T13:06:59.166Z,43.87
2023-07-26T13:09:46.805Z,43.89
2023-07-26T13:12:34.455Z,43.81
2023-07-26T13:15:22.071Z,42.65
2023-07-26T13:18:09.758Z,43.98
2023-07-26T13:20:57.424Z,44.56
2023-07-26T13:23:45.073Z,43.98
2023-07-26T13:26:32.887Z,44.49
2023-07-26T13:29:20.755Z,42.57
2023-07-26T13:32:08.387Z,42.28
2023-07-26T13:34:56.010Z,39.82
2023-07-26T13:37:43.975Z,44.10
2023-07-26T13:40:31.605Z,42.57
2023-07-26T13:43:19.202Z,41.65
2023-07-26T13:46:16.477Z,44.21
2023-07-26T13:49:11.782Z,41.91
2023-07-26T13:51:59.417Z,43.13
2023-07-26T13:54:47.068Z,42.13
2023-07-26T13:57:34.701Z,42.43
2023-07-26T14:00:22.335Z,43.04
2023-07-26T14:03:10.930Z,40.70
2023-07-26T14:06:00.735Z,40.99
2023-07-26T14:08:48.352Z,42.91
2023-07-26T14:11:36.089Z,41.56
2023-07-26T14:14:23.735Z,40.26
2023-07-26T14:17:11.444Z,40.16
2023-07-26T14:19:59.123Z,40.46
2023-07-26T14:22:46.741Z,39.12
2023-07-26T14:25:36.419Z,39.14
2023-07-26T14:28:24.054Z,39.59
2023-07-26T14:31:11.729Z,40.49
2023-07-26T14:33:59.373Z,41.87
2023-07-26T14:36:47.007Z,42.11
2023-07-26T14:39:34.668Z,42.04
2023-07-26T14:42:22.324Z,42.14
2023-07-26T14:45:09.979Z,42.49
2023-07-26T14:47:57.602Z,41.86
2023-07-26T14:50:45.271Z,40.46
2023-07-26T14:53:32.923Z,39.48
2023-07-26T14:56:20.562Z,41.68
2023-07-26T14:59:08.214Z,41.68
2023-07-26T15:01:55.838Z,41.69
2023-07-26T15:04:43.659Z,41.25
2023-07-26T15:07:31.362Z,40.91
2023-07-26T15:10:21.493Z,39.42
2023-07-26T15:13:09.900Z,39.90
2023-07-26T15:15:59.530Z,39.92
2023-07-26T15:18:47.144Z,39.25
2023-07-26T15:21:35.141Z,38.78
2023-07-26T15:24:22.994Z,40.40
2023-07-26T15:27:10.804Z,38.99
2023-07-26T15:30:00.464Z,38.61
2023-07-26T15:32:48.184Z,36.72
2023-07-26T15:35:38.693Z,35.61
2023-07-26T15:38:26.886Z,38.17
2023-07-26T15:41:16.188Z,37.18
2023-07-26T15:49:46.100Z,39.34
2023-07-26T15:52:34.541Z,37.22
2023-07-26T15:55:24.182Z,37.55
2023-07-26T15:58:11.816Z,38.87
2023-07-26T16:00:59.463Z,41.89
2023-07-26T16:03:52.966Z,40.97
2023-07-26T16:09:31.613Z,40.56
2023-07-26T16:23:41.449Z,39.62
2023-07-26T16:26:29.071Z,41.70
2023-07-26T16:29:16.723Z,42.24
2023-07-26T16:32:04.370Z,44.92
2023-07-26T16:34:52.034Z,43.90
2023-07-26T16:37:39.694Z,43.07
2023-07-26T16:40:27.328Z,43.79
2023-07-26T16:43:14.955Z,39.89
2023-07-26T16:46:02.660Z,42.67
2023-07-26T16:48:50.285Z,42.09
2023-07-26T16:51:38.016Z,41.87
2023-07-26T16:54:25.652Z,41.12
2023-07-26T16:57:13.290Z,38.52
2023-07-26T17:00:00.907Z,38.34
2023-07-26T17:02:48.677Z,35.55
2023-07-26T17:05:36.341Z,38.92
2023-07-26T17:08:24.027Z,37.15
2023-07-26T17:11:11.699Z,38.81
2023-07-26T17:13:59.365Z,38.28
2023-07-26T17:16:48.997Z,37.82
2023-07-26T17:19:36.592Z,39.57
2023-07-26T17:22:24.354Z,36.97
2023-07-26T17:25:11.996Z,36.48
2023-07-26T17:27:59.643Z,37.04
2023-07-26T17:30:47.259Z,36.94
2023-07-26T17:33:34.902Z,35.43
2023-07-26T17:36:22.507Z,36.68
2023-07-26T17:39:10.152Z,35.03
2023-07-26T17:41:59.802Z,36.75
2023-07-26T17:44:47.449Z,37.57
2023-07-26T17:47:35.083Z,36.84
2023-07-26T17:50:22.723Z,36.01
2023-07-26T17:53:10.363Z,36.19
2023-07-26T17:55:57.992Z,37.37
2023-07-26T17:58:45.651Z,37.57
2023-07-26T18:01:33.302Z,36.39
2023-07-26T18:04:21.031Z,35.80
2023-07-26T18:07:08.691Z,35.32
2023-07-26T18:09:58.340Z,35.73
2023-07-26T18:12:45.967Z,34.98
2023-07-26T18:15:33.651Z,34.26
2023-07-26T18:18:21.316Z,33.94
2023-07-26T18:21:08.988Z,34.28
2023-07-26T18:23:56.611Z,33.37
2023-07-26T18:26:44.704Z,34.42
2023-07-26T18:29:32.521Z,34.87
2023-07-26T18:32:20.166Z,34.81
2023-07-26T18:35:07.823Z,35.42
2023-07-26T18:37:55.461Z,35.31
2023-07-26T18:40:43.106Z,34.64
2023-07-26T18:43:30.767Z,35.57
2023-07-26T18:46:18.511Z,34.92
2023-07-26T18:49:08.168Z,37.13
2023-07-26T18:51:55.794Z,41.87
2023-07-26T18:54:43.457Z,43.97
2023-07-26T18:57:31.147Z,45.35
2023-07-26T19:00:18.788Z,46.11
2023-07-26T19:03:06.519Z,46.45
2023-07-26T19:05:54.187Z,48.13
2023-07-26T19:08:41.824Z,49.25
2023-07-26T19:11:29.453Z,50.18
2023-07-26T19:14:17.073Z,51.82
2023-07-26T19:17:04.832Z,52.75
2023-07-26T19:19:52.460Z,53.11
2023-07-26T19:22:40.130Z,53.58
2023-07-26T19:25:27.781Z,54.02
2023-07-26T19:28:15.474Z,55.18
2023-07-26T19:31:03.146Z,55.71
2023-07-26T19:33:50.822Z,56.08
2023-07-26T19:36:38.443Z,57.57
2023-07-26T19:39:26.129Z,58.21
2023-07-26T19:42:13.752Z,58.10
2023-07-26T19:45:01.403Z,57.98
2023-07-26T19:47:51.205Z,58.10
2023-07-26T19:50:38.913Z,58.37
2023-07-26T19:53:26.532Z,58.45
2023-07-26T19:56:14.178Z,59.18
2023-07-26T19:59:01.855Z,59.32
2023-07-26T20:01:49.681Z,59.38
2023-07-26T20:04:37.507Z,60.03
2023-07-26T20:07:25.136Z,60.15
2023-07-26T20:10:12.784Z,60.05
2023-07-26T20:13:00.428Z,60.19
2023-07-26T20:15:48.243Z,59.39
2023-07-26T20:18:35.862Z,58.29
2023-07-26T20:21:23.520Z,58.24
2023-07-26T20:24:11.121Z,58.96
2023-07-26T20:26:58.908Z,59.58
2023-07-26T20:29:46.505Z,59.17
2023-07-26T20:32:34.310Z,60.20
2023-07-26T20:35:21.951Z,60.51
2023-07-26T20:38:09.589Z,60.92
2023-07-26T20:40:57.229Z,61.56
2023-07-26T20:43:44.885Z,62.04
2023-07-26T20:46:32.529Z,61.84
2023-07-26T20:49:20.209Z,62.66
2023-07-26T20:52:07.878Z,63.09
2023-07-26T20:54:55.526Z,62.80
2023-07-26T20:57:43.154Z,62.88
2023-07-26T21:00:32.774Z,63.29
2023-07-26T21:03:20.530Z,63.58
2023-07-26T21:06:08.283Z,62.46
2023-07-26T21:08:55.906Z,61.04
2023-07-26T21:11:43.585Z,60.18
2023-07-26T21:14:31.227Z,60.82
2023-07-26T21:17:18.996Z,60.28
2023-07-26T21:20:06.715Z,60.13
2023-07-26T21:22:54.424Z,59.10
2023-07-26T21:25:42.071Z,59.30
2023-07-26T21:28:29.725Z,59.37
2023-07-26T21:31:17.373Z,59.68
2023-07-26T21:34:05.040Z,60.57
2023-07-26T21:36:52.659Z,60.81
2023-07-26T21:39:40.317Z,60.49
2023-07-26T21:42:27.960Z,60.25
2023-07-26T21:45:15.655Z,60.02
2023-07-26T21:48:03.362Z,59.69
2023-07-26T21:50:52.102Z,59.43
2023-07-26T21:53:39.756Z,60.29
2023-07-26T21:56:27.675Z,59.78
2023-07-26T21:59:15.363Z,58.79
2023-07-26T22:02:03.051Z,55.84
2023-07-26T22:04:50.730Z,53.03
2023-07-26T22:07:38.364Z,56.00
2023-07-26T22:10:25.990Z,56.64
2023-07-26T22:13:13.634Z,58.62
2023-07-26T22:16:01.337Z,58.52
2023-07-26T22:18:49.005Z,59.03
2023-07-26T22:21:36.664Z,59.36
2023-07-26T22:24:24.375Z,59.43
2023-07-26T22:27:12.024Z,58.73
2023-07-26T22:29:59.721Z,58.71
2023-07-26T22:32:47.453Z,58.14
2023-07-26T22:35:35.110Z,58.96
2023-07-26T22:38:22.768Z,58.68
2023-07-26T22:41:10.399Z,58.43
2023-07-26T22:43:58.042Z,58.74
2023-07-26T22:46:45.684Z,59.53
2023-07-26T22:49:33.328Z,59.81
2023-07-26T22:52:20.979Z,59.61
2023-07-26T22:55:08.630Z,59.06
2023-07-26T22:57:56.348Z,58.60
2023-07-26T23:00:44.098Z,58.09
2023-07-26T23:03:31.818Z,58.77
2023-07-26T23:06:19.581Z,58.13
2023-07-26T23:09:07.227Z,59.89
2023-07-26T23:11:54.865Z,61.62
2023-07-26T23:14:42.488Z,63.41
2023-07-26T23:17:30.320Z,64.37
2023-07-26T23:20:18.002Z,65.37
2023-07-26T23:23:05.630Z,65.25
2023-07-26T23:25:53.271Z,64.84
2023-07-26T23:28:40.964Z,63.64
2023-07-26T23:31:28.611Z,62.51
2023-07-26T23:34:16.283Z,63.02
2023-07-26T23:37:05.905Z,63.26
2023-07-26T23:39:53.565Z,63.00
2023-07-26T23:42:41.224Z,63.22
2023-07-26T23:45:28.843Z,62.83
2023-07-26T23:48:17.744Z,61.74
2023-07-26T23:51:06.186Z,61.39
2023-07-26T23:53:53.809Z,61.99
2023-07-26T23:56:41.485Z,62.12
2023-07-26T23:59:29.117Z,62.08
